createdAt,value
2023-01-09T00:02:44.428Z,7.67
2023-01-09T00:05:31.627Z,7.70
2023-01-09T00:08:20.308Z,8.13
2023-01-09T00:11:07.613Z,9.47
2023-01-09T00:13:54.994Z,7.47
2023-01-09T00:16:42.262Z,7.80
2023-01-09T00:19:29.827Z,8.37
2023-01-09T00:22:17.641Z,7.97
2023-01-09T00:25:07.436Z,7.87
2023-01-09T00:27:54.611Z,8.03
2023-01-09T00:30:42.180Z,8.33
2023-01-09T00:33:32.122Z,9.73
2023-01-09T00:36:19.590Z,8.60
2023-01-09T00:39:07.147Z,8.93
2023-01-09T00:41:58.547Z,9.90
2023-01-09T00:44:50.379Z,10.37
2023-01-09T00:47:42.794Z,10.47
2023-01-09T00:50:33.034Z,9.40
2023-01-09T00:53:23.298Z,7.93
2023-01-09T00:56:15.650Z,7.90
2023-01-09T00:59:04.987Z,13.33
2023-01-09T01:01:52.245Z,10.00
2023-01-09T01:04:56.719Z,11.90
2023-01-09T01:07:44.922Z,11.83
2023-01-09T01:10:32.371Z,11.40
2023-01-09T01:13:20.058Z,11.03
2023-01-09T01:16:10.951Z,9.67
2023-01-09T01:18:58.279Z,10.10
2023-01-09T01:21:45.876Z,8.77
2023-01-09T01:24:33.439Z,8.53
2023-01-09T01:27:20.911Z,10.20
2023-01-09T01:30:09.875Z,9.70
2023-01-09T01:32:58.757Z,11.33
2023-01-09T01:35:46.007Z,9.37
2023-01-09T01:38:33.968Z,10.87
2023-01-09T01:41:29.538Z,11.80
2023-01-09T01:44:54.133Z,9.70
2023-01-09T01:47:50.301Z,11.27
2023-01-09T01:50:44.131Z,11.83
2023-01-09T01:53:34.448Z,10.20
2023-01-09T01:56:25.575Z,14.53
2023-01-09T01:59:18.245Z,10.67
2023-01-09T02:02:06.478Z,10.43
2023-01-09T02:04:57.037Z,10.80
2023-01-09T02:07:45.901Z,10.17
2023-01-09T02:10:34.474Z,14.43
2023-01-09T02:13:22.068Z,9.73
2023-01-09T02:16:26.954Z,12.07
2023-01-09T02:19:42.308Z,14.73
2023-01-09T02:22:38.019Z,13.53
2023-01-09T02:25:49.328Z,14.43
2023-01-09T02:28:53.709Z,11.63
2023-01-09T02:31:49.346Z,12.57
2023-01-09T02:34:45.805Z,10.10
2023-01-09T02:37:39.883Z,12.40
2023-01-09T02:40:33.901Z,12.13
2023-01-09T02:43:21.407Z,17.87
2023-01-09T02:46:19.883Z,16.07
2023-01-09T02:49:09.258Z,13.67
2023-01-09T02:52:15.192Z,16.30
2023-01-09T02:55:10.831Z,13.37
2023-01-09T02:58:23.346Z,12.53
2023-01-09T03:01:24.539Z,13.53
2023-01-09T03:04:21.897Z,12.53
2023-01-09T03:07:16.591Z,15.50
2023-01-09T03:10:10.300Z,14.00
2023-01-09T03:13:01.331Z,13.13
2023-01-09T03:15:50.730Z,12.23
2023-01-09T03:18:39.774Z,14.97
2023-01-09T03:21:29.625Z,14.03
2023-01-09T03:24:17.030Z,14.77
2023-01-09T03:27:04.529Z,13.50
2023-01-09T03:29:53.280Z,15.03
2023-01-09T03:32:40.911Z,15.87
2023-01-09T03:35:28.877Z,13.80
2023-01-09T03:38:17.388Z,11.53
2023-01-09T03:41:05.019Z,12.37
2023-01-09T03:43:52.456Z,12.17
2023-01-09T03:46:39.951Z,10.93
2023-01-09T03:49:27.422Z,12.13
2023-01-09T03:52:15.100Z,12.13
2023-01-09T03:55:04.032Z,13.63
2023-01-09T03:57:52.645Z,14.40
2023-01-09T04:00:40.411Z,11.17
2023-01-09T04:03:27.993Z,12.80
2023-01-09T04:06:15.427Z,14.73
2023-01-09T04:09:02.842Z,10.37
2023-01-09T04:11:51.521Z,11.87
2023-01-09T04:14:38.594Z,11.70
2023-01-09T04:17:26.216Z,11.43
2023-01-09T04:20:13.864Z,14.77
2023-01-09T04:23:01.111Z,15.27
2023-01-09T04:25:48.988Z,13.37
2023-01-09T04:28:37.730Z,12.70
2023-01-09T04:31:24.785Z,13.80
2023-01-09T04:34:12.304Z,13.07
2023-01-09T04:36:59.826Z,13.43
2023-01-09T04:39:47.572Z,12.53
2023-01-09T04:42:34.691Z,14.20
2023-01-09T04:45:23.421Z,13.93
2023-01-09T04:48:10.837Z,13.33
2023-01-09T04:50:58.243Z,10.30
2023-01-09T04:53:45.697Z,12.73
2023-01-09T04:56:33.114Z,12.77
2023-01-09T04:59:20.488Z,11.93
2023-01-09T05:02:09.232Z,10.40
2023-01-09T05:04:56.253Z,13.97
2023-01-09T05:07:43.796Z,14.97
2023-01-09T05:10:31.253Z,12.17
2023-01-09T05:13:18.460Z,13.00
2023-01-09T05:16:06.183Z,12.23
2023-01-09T05:18:57.122Z,11.83
2023-01-09T05:21:44.263Z,10.93
2023-01-09T05:24:31.853Z,13.43
2023-01-09T05:27:19.285Z,10.57
2023-01-09T05:30:07.729Z,14.53
2023-01-09T05:32:55.259Z,12.77
2023-01-09T05:35:43.969Z,13.23
2023-01-09T05:38:31.197Z,11.23
2023-01-09T05:41:18.641Z,14.50
2023-01-09T05:44:06.437Z,13.63
2023-01-09T05:46:53.914Z,15.00
2023-01-09T05:49:41.543Z,12.10
2023-01-09T05:52:30.563Z,17.03
2023-01-09T05:55:18.129Z,13.70
2023-01-09T05:58:05.614Z,13.63
2023-01-09T06:00:54.707Z,11.53
2023-01-09T06:03:41.951Z,12.00
2023-01-09T06:06:29.340Z,13.63
2023-01-09T06:09:18.093Z,13.37
2023-01-09T06:12:05.658Z,15.10
2023-01-09T06:14:53.241Z,13.93
2023-01-09T06:17:40.560Z,14.90
2023-01-09T06:20:28.205Z,14.00
2023-01-09T06:23:15.734Z,13.70
2023-01-09T06:26:04.633Z,14.00
2023-01-09T06:28:51.809Z,14.63
2023-01-09T06:31:39.205Z,13.23
2023-01-09T06:34:26.927Z,13.00
2023-01-09T06:37:14.034Z,12.77
2023-01-09T06:40:01.420Z,14.07
2023-01-09T06:42:50.640Z,12.43
2023-01-09T06:45:37.832Z,13.30
2023-01-09T06:48:25.668Z,16.20
2023-01-09T06:51:12.682Z,13.27
2023-01-09T06:54:00.163Z,14.43
2023-01-09T06:56:47.893Z,13.60
2023-01-09T06:59:36.979Z,16.77
2023-01-09T07:02:24.489Z,16.33
2023-01-09T07:05:12.004Z,17.13
2023-01-09T07:07:59.270Z,14.77
2023-01-09T07:10:46.571Z,14.83
2023-01-09T07:13:34.169Z,16.23
2023-01-09T07:16:22.729Z,13.50
2023-01-09T07:19:09.769Z,15.20
2023-01-09T07:21:56.995Z,12.83
2023-01-09T07:24:44.995Z,16.07
2023-01-09T07:27:32.487Z,13.50
2023-01-09T07:30:20.046Z,16.97
2023-01-09T07:33:08.799Z,14.07
2023-01-09T07:35:56.021Z,12.87
2023-01-09T07:38:43.302Z,17.80
2023-01-09T07:41:30.608Z,17.13
2023-01-09T07:44:18.132Z,12.90
2023-01-09T07:47:05.708Z,13.87
2023-01-09T07:49:54.211Z,12.10
2023-01-09T07:52:41.541Z,12.67
2023-01-09T07:55:28.866Z,12.10
2023-01-09T07:58:16.472Z,15.50
2023-01-09T08:01:03.926Z,13.70
2023-01-09T08:03:51.302Z,14.93
2023-01-09T08:06:40.182Z,12.77
2023-01-09T08:09:27.459Z,16.07
2023-01-09T08:12:14.787Z,14.30
2023-01-09T08:15:02.170Z,14.67
2023-01-09T08:17:49.489Z,16.57
2023-01-09T08:20:37.047Z,15.37
2023-01-09T08:23:25.779Z,15.43
2023-01-09T08:26:13.103Z,16.63
2023-01-09T08:29:00.655Z,15.40
2023-01-09T08:31:48.174Z,14.83
2023-01-09T08:34:36.730Z,14.90
2023-01-09T08:37:23.838Z,16.07
2023-01-09T08:40:14.526Z,15.60
2023-01-09T08:43:19.222Z,13.47
2023-01-09T08:46:24.568Z,13.73
2023-01-09T08:49:11.768Z,15.27
2023-01-09T08:51:59.336Z,14.70
2023-01-09T08:54:46.960Z,16.83
2023-01-09T08:57:35.703Z,15.40
2023-01-09T09:00:24.957Z,16.20
2023-01-09T09:03:12.691Z,13.67
2023-01-09T09:06:00.276Z,12.60
2023-01-09T09:08:47.712Z,13.03
2023-01-09T09:11:35.291Z,13.57
2023-01-09T09:14:41.833Z,16.10
2023-01-09T09:17:28.999Z,12.97
2023-01-09T09:20:16.594Z,15.30
2023-01-09T09:23:03.714Z,11.90
2023-01-09T09:25:51.222Z,13.57
2023-01-09T09:28:38.784Z,12.10
2023-01-09T09:31:27.589Z,14.07
2023-01-09T09:34:14.961Z,15.43
2023-01-09T09:37:02.375Z,14.77
2023-01-09T09:39:49.652Z,12.50
2023-01-09T09:43:30.331Z,13.50
2023-01-09T09:46:26.290Z,13.80
2023-01-09T09:49:20.609Z,13.27
2023-01-09T09:52:20.607Z,12.90
2023-01-09T09:55:19.302Z,10.83
2023-01-09T09:58:12.813Z,12.00
2023-01-09T10:01:01.369Z,10.33
2023-01-09T10:03:52.242Z,14.27
2023-01-09T10:06:45.047Z,10.73
2023-01-09T10:09:44.092Z,8.93
2023-01-09T10:12:32.875Z,12.23
2023-01-09T10:15:29.823Z,9.80
2023-01-09T10:18:24.139Z,10.73
2023-01-09T10:21:18.819Z,11.23
2023-01-09T10:24:20.898Z,8.80
2023-01-09T10:27:18.586Z,12.30
2023-01-09T10:30:29.279Z,8.83
2023-01-09T10:33:31.163Z,8.83
2023-01-09T10:36:34.423Z,8.37
2023-01-09T10:39:26.138Z,8.20
2023-01-09T10:42:22.098Z,9.47
2023-01-09T10:45:19.827Z,6.30
2023-01-09T10:48:18.696Z,6.70
2023-01-09T10:51:16.195Z,7.10
2023-01-09T10:54:06.375Z,7.40
2023-01-09T10:56:59.383Z,7.40
2023-01-09T10:59:46.608Z,8.13
2023-01-09T11:02:36.522Z,6.63
2023-01-09T11:05:26.736Z,8.10
2023-01-09T11:08:25.023Z,5.10
2023-01-09T11:11:13.078Z,7.13
2023-01-09T11:14:13.752Z,5.80
2023-01-09T11:17:03.320Z,4.83
2023-01-09T11:20:05.344Z,5.00
2023-01-09T11:22:54.949Z,7.60
2023-01-09T11:25:53.687Z,8.00
2023-01-09T11:28:41.261Z,4.73
2023-01-09T11:31:30.420Z,5.00
2023-01-09T11:34:19.130Z,5.23
2023-01-09T11:37:11.291Z,4.90
2023-01-09T11:39:59.944Z,3.97
2023-01-09T11:43:04.288Z,5.57
2023-01-09T11:46:01.007Z,3.23
2023-01-09T11:48:57.705Z,4.10
2023-01-09T11:51:45.609Z,4.03
2023-01-09T11:54:35.395Z,4.53
2023-01-09T11:57:23.942Z,3.57
2023-01-09T12:00:25.684Z,6.53
2023-01-09T12:03:19.273Z,4.43
2023-01-09T12:06:20.328Z,5.07
2023-01-09T12:09:08.970Z,2.80
2023-01-09T12:12:03.186Z,3.13
2023-01-09T12:15:03.238Z,2.93
2023-01-09T12:18:09.481Z,2.83
2023-01-09T12:21:24.067Z,2.70
2023-01-09T12:24:30.714Z,3.57
2023-01-09T12:27:29.434Z,4.10
2023-01-09T12:30:29.134Z,3.37
2023-01-09T12:33:27.923Z,4.43
2023-01-09T12:36:23.829Z,4.67
2023-01-09T12:39:25.408Z,2.53
2023-01-09T12:42:25.952Z,3.57
2023-01-09T12:45:42.769Z,2.70
2023-01-09T12:48:44.656Z,2.93
2023-01-09T12:51:38.525Z,2.90
2023-01-09T12:54:35.878Z,2.97
2023-01-09T12:57:31.233Z,3.97
2023-01-09T13:00:24.640Z,2.77
2023-01-09T13:03:19.502Z,2.43
2023-01-09T13:06:12.158Z,4.00
2023-01-09T13:09:08.252Z,3.00
2023-01-09T13:12:04.175Z,2.10
2023-01-09T13:14:56.273Z,4.40
2023-01-09T13:17:47.563Z,3.63
2023-01-09T13:20:39.438Z,7.30
2023-01-09T13:23:37.257Z,3.57
2023-01-09T13:26:28.379Z,2.40
2023-01-09T13:29:21.541Z,1.93
2023-01-09T13:32:30.483Z,2.80
2023-01-09T13:35:17.991Z,1.90
2023-01-09T13:38:05.353Z,1.50
2023-01-09T13:41:23.258Z,1.70
2023-01-09T13:44:25.379Z,2.07
2023-01-09T13:47:21.112Z,2.03
2023-01-09T13:50:27.636Z,2.40
2023-01-09T13:53:57.765Z,4.33
2023-01-09T13:57:25.914Z,2.87
2023-01-09T14:00:50.875Z,1.87
2023-01-09T14:03:39.739Z,2.43
2023-01-09T14:06:28.098Z,3.23
2023-01-09T14:09:21.828Z,2.83
2023-01-09T14:12:09.459Z,2.93
2023-01-09T14:14:59.660Z,1.83
2023-01-09T14:17:49.952Z,1.83
2023-01-09T14:20:40.890Z,1.83
2023-01-09T14:23:50.339Z,1.70
2023-01-09T14:26:46.070Z,3.17
2023-01-09T14:29:45.058Z,2.93
2023-01-09T14:32:45.867Z,3.93
2023-01-09T14:35:42.900Z,5.97
2023-01-09T14:38:33.134Z,3.17
2023-01-09T14:41:46.765Z,2.70
2023-01-09T14:44:46.404Z,3.07
2023-01-09T14:47:38.443Z,2.90
2023-01-09T14:50:33.154Z,1.70
2023-01-09T14:53:24.523Z,2.53
2023-01-09T14:56:27.654Z,3.60
2023-01-09T14:59:15.613Z,2.10
2023-01-09T15:02:03.065Z,4.13
2023-01-09T15:04:50.819Z,4.10
2023-01-09T15:07:44.549Z,3.23
2023-01-09T15:10:36.855Z,3.50
2023-01-09T15:13:30.703Z,1.97
2023-01-09T15:16:20.638Z,2.17
2023-01-09T15:19:09.699Z,2.23
2023-01-09T15:22:05.262Z,3.97
2023-01-09T15:24:52.508Z,2.20
2023-01-09T15:27:49.693Z,2.20
2023-01-09T15:30:37.663Z,3.23
2023-01-09T15:33:25.136Z,3.27
2023-01-09T15:36:16.858Z,4.10
2023-01-09T15:39:08.194Z,2.80
2023-01-09T15:42:13.918Z,2.47
2023-01-09T15:45:05.148Z,3.70
2023-01-09T15:47:53.002Z,2.57
2023-01-09T15:50:41.441Z,2.90
2023-01-09T15:53:30.332Z,2.30
2023-01-09T15:56:20.139Z,4.67
2023-01-09T15:59:24.557Z,2.77
2023-01-09T16:02:33.023Z,1.57
2023-01-09T16:05:20.952Z,3.03
2023-01-09T16:08:30.280Z,6.50
2023-01-09T16:11:24.620Z,2.43
2023-01-09T16:14:15.399Z,1.50
2023-01-09T16:17:06.828Z,2.07
2023-01-09T16:19:57.881Z,2.27
2023-01-09T16:22:54.492Z,1.47
2023-01-09T16:25:41.843Z,1.97
2023-01-09T16:28:30.706Z,2.70
2023-01-09T16:31:23.692Z,2.17
2023-01-09T16:34:14.308Z,7.53
2023-01-09T16:37:03.819Z,1.37
2023-01-09T16:40:24.098Z,36.43
2023-01-09T16:43:14.614Z,6.13
2023-01-09T16:46:02.822Z,1.60
2023-01-09T16:48:50.426Z,1.47
2023-01-09T16:51:37.529Z,3.27
2023-01-09T16:54:26.156Z,1.90
2023-01-09T16:57:17.066Z,1.53
2023-01-09T17:00:05.766Z,3.17
2023-01-09T17:02:53.030Z,2.00
2023-01-09T17:05:40.076Z,3.70
2023-01-09T17:08:29.900Z,2.60
2023-01-09T17:11:22.679Z,2.47
2023-01-09T17:14:12.755Z,5.17
2023-01-09T17:17:00.333Z,1.80
2023-01-09T17:19:47.590Z,4.93
2023-01-09T17:22:34.748Z,2.00
2023-01-09T17:25:39.363Z,2.70
2023-01-09T17:28:33.944Z,1.87
2023-01-09T17:31:21.506Z,1.73
2023-01-09T17:34:10.119Z,3.27
2023-01-09T17:36:57.461Z,2.90
2023-01-09T17:39:45.155Z,3.53
2023-01-09T17:42:32.534Z,3.63
2023-01-09T17:45:21.506Z,2.77
2023-01-09T17:48:15.091Z,1.70
2023-01-09T17:51:02.345Z,1.47
2023-01-09T17:53:49.971Z,2.00
2023-01-09T17:56:38.805Z,1.60
2023-01-09T17:59:27.594Z,1.70
2023-01-09T18:02:19.978Z,2.57
2023-01-09T18:05:08.099Z,2.73
2023-01-09T18:07:55.721Z,3.53
2023-01-09T18:10:45.341Z,4.30
2023-01-09T18:13:33.459Z,1.70
2023-01-09T18:16:24.064Z,4.33
2023-01-09T18:19:12.910Z,2.43
2023-01-09T18:22:00.447Z,3.67
2023-01-09T18:24:47.565Z,3.87
2023-01-09T18:27:37.760Z,1.93
2023-01-09T18:30:25.052Z,2.13
2023-01-09T18:33:13.279Z,1.43
2023-01-09T18:36:08.742Z,2.93
2023-01-09T18:38:56.156Z,1.70
2023-01-09T18:41:43.511Z,1.80
2023-01-09T18:44:30.664Z,3.37
2023-01-09T18:47:18.068Z,1.93
2023-01-09T18:50:06.149Z,1.20
2023-01-09T18:52:55.182Z,1.60
2023-01-09T18:55:42.531Z,1.70
2023-01-09T18:58:30.101Z,1.83
2023-01-09T19:01:17.960Z,2.97
2023-01-09T19:04:05.753Z,3.00
2023-01-09T19:06:53.006Z,1.63
2023-01-09T19:09:41.920Z,1.10
2023-01-09T19:12:29.351Z,1.40
2023-01-09T19:15:16.908Z,1.67
2023-01-09T19:18:04.404Z,1.40
2023-01-09T19:20:52.677Z,1.33
2023-01-09T19:23:41.025Z,2.80
2023-01-09T19:26:30.856Z,1.30
2023-01-09T19:29:18.452Z,2.20
2023-01-09T19:32:08.402Z,1.30
2023-01-09T19:34:55.807Z,2.07
2023-01-09T19:37:43.243Z,2.43
2023-01-09T19:40:30.887Z,3.17
2023-01-09T19:43:26.567Z,2.17
2023-01-09T19:46:16.014Z,2.10
2023-01-09T19:49:06.088Z,2.30
2023-01-09T19:51:55.071Z,1.90
2023-01-09T19:54:42.807Z,1.70
2023-01-09T19:57:30.375Z,1.63
2023-01-09T20:00:19.538Z,1.67
2023-01-09T20:03:06.891Z,2.23
2023-01-09T20:05:54.355Z,1.37
2023-01-09T20:08:42.550Z,1.87
2023-01-09T20:11:32.043Z,1.27
2023-01-09T20:14:20.752Z,1.50
2023-01-09T20:17:09.585Z,4.00
2023-01-09T20:19:56.664Z,1.50
2023-01-09T20:22:44.003Z,1.90
2023-01-09T20:25:31.603Z,1.13
2023-01-09T20:28:19.127Z,1.20
2023-01-09T20:31:10.003Z,1.47
2023-01-09T20:34:00.111Z,3.97
2023-01-09T20:36:47.489Z,0.93
2023-01-09T20:39:34.875Z,1.20
2023-01-09T20:42:22.404Z,1.10
2023-01-09T20:45:10.365Z,1.20
2023-01-09T20:47:57.984Z,1.40
2023-01-09T20:50:46.746Z,1.77
2023-01-09T20:53:34.028Z,2.13
2023-01-09T20:56:21.451Z,1.80
2023-01-09T20:59:17.873Z,1.60
2023-01-09T21:02:05.539Z,1.73
2023-01-09T21:04:53.135Z,1.67
2023-01-09T21:07:42.006Z,1.43
2023-01-09T21:10:29.406Z,1.03
2023-01-09T21:13:17.092Z,1.70
2023-01-09T21:16:08.895Z,1.87
2023-01-09T21:18:57.229Z,1.87
2023-01-09T21:21:44.512Z,1.23
2023-01-09T21:24:33.470Z,1.47
2023-01-09T21:27:21.032Z,2.60
2023-01-09T21:30:10.124Z,1.13
2023-01-09T21:32:57.231Z,1.50
2023-01-09T21:35:44.664Z,1.50
2023-01-09T21:38:31.979Z,1.70
2023-01-09T21:41:39.886Z,2.13
2023-01-09T21:44:44.346Z,1.20
2023-01-09T21:47:33.271Z,1.10
2023-01-09T21:50:20.458Z,1.97
2023-01-09T21:53:08.405Z,2.40
2023-01-09T21:55:55.884Z,2.17
2023-01-09T21:58:46.274Z,1.63
2023-01-09T22:01:33.495Z,1.63
2023-01-09T22:04:22.469Z,1.03
2023-01-09T22:07:11.126Z,1.53
2023-01-09T22:09:58.523Z,1.37
2023-01-09T22:13:05.955Z,1.13
2023-01-09T22:15:55.348Z,2.60
2023-01-09T22:18:42.874Z,1.30
2023-01-09T22:21:30.473Z,1.77
2023-01-09T22:24:19.849Z,1.30
2023-01-09T22:27:07.181Z,1.47
2023-01-09T22:29:54.755Z,3.07
2023-01-09T22:32:43.750Z,1.30
2023-01-09T22:35:31.109Z,2.10
2023-01-09T22:38:18.509Z,2.33
2023-01-09T22:41:06.543Z,1.83
2023-01-09T22:43:54.042Z,1.70
2023-01-09T22:46:41.364Z,1.87
2023-01-09T22:49:37.309Z,2.13
2023-01-09T22:52:37.599Z,1.70
2023-01-09T22:55:25.228Z,1.20
2023-01-09T22:58:12.758Z,1.43
2023-01-09T23:01:00.315Z,1.40
2023-01-09T23:03:47.606Z,1.20
2023-01-09T23:06:36.115Z,3.33
2023-01-09T23:09:23.319Z,1.30
2023-01-09T23:12:11.247Z,1.93
2023-01-09T23:14:58.760Z,1.60
2023-01-09T23:17:46.419Z,1.70
2023-01-09T23:20:33.833Z,2.50
2023-01-09T23:23:23.350Z,1.57
2023-01-09T23:26:11.049Z,1.60
2023-01-09T23:28:58.742Z,2.43
2023-01-09T23:31:46.544Z,1.73
2023-01-09T23:34:33.876Z,1.83
2023-01-09T23:37:21.431Z,1.50
2023-01-09T23:40:11.935Z,1.77
2023-01-09T23:43:10.310Z,1.50
2023-01-09T23:45:57.815Z,1.27
2023-01-09T23:48:45.081Z,1.40
2023-01-09T23:51:32.470Z,1.80
2023-01-09T23:54:19.891Z,1.73
2023-01-09T23:57:08.647Z,1.50
2023-01-09T23:59:55.904Z,1.60
